sensor_id;sensor_type;location;lat;lon;timestamp;P1;durP1;ratioP1;P2;durP2;ratioP2
31095;SDS011;17749;51.962;8.560;2022-11-15T06:00:37;13.77;;;10.90;;
31095;SDS011;17749;51.962;8.560;2022-11-15T06:03:23;16.17;;;11.35;;
31095;SDS011;17749;51.962;8.560;2022-11-15T06:06:10;14.93;;;10.13;;
31095;SDS011;17749;51.962;8.560;2022-11-15T06:09:06;15.10;;;10.68;;
31095;SDS011;17749;51.962;8.560;2022-11-15T06:11:54;13.77;;;10.52;;
31095;SDS011;17749;51.962;8.560;2022-11-15T06:14:57;16.50;;;10.80;;
31095;SDS011;17749;51.962;8.560;2022-11-15T06:17:44;13.85;;;10.25;;
31095;SDS011;17749;51.962;8.560;2022-11-15T06:20:36;16.05;;;10.20;;
31095;SDS011;17749;51.962;8.560;2022-11-15T06:23:22;16.40;;;10.73;;
31095;SDS011;17749;51.962;8.560;2022-11-15T06:26:10;14.88;;;11.18;;
31095;SDS011;17749;51.962;8.560;2022-11-15T06:29:15;16.77;;;10.93;;
31095;SDS011;17749;51.962;8.560;2022-11-15T06:32:02;16.55;;;11.07;;
31095;SDS011;17749;51.962;8.560;2022-11-15T06:34:58;14.43;;;9.82;;
31095;SDS011;17749;51.962;8.560;2022-11-15T06:37:54;13.60;;;9.38;;
31095;SDS011;17749;51.962;8.560;2022-11-15T06:41:02;13.30;;;9.90;;
31095;SDS011;17749;51.962;8.560;2022-11-15T06:47:30;15.35;;;10.20;;
31095;SDS011;17749;51.962;8.560;2022-11-15T06:50:30;13.77;;;10.30;;
31095;SDS011;17749;51.962;8.560;2022-11-15T06:53:21;16.40;;;10.73;;
31095;SDS011;17749;51.962;8.560;2022-11-15T07:00:39;17.55;;;12.02;;
31095;SDS011;17749;51.962;8.560;2022-11-15T07:08:05;18.47;;;11.73;;
31095;SDS011;17749;51.962;8.560;2022-11-15T07:10:53;19.17;;;11.00;;
31095;SDS011;17749;51.962;8.560;2022-11-15T07:21:19;14.13;;;9.70;;
31095;SDS011;17749;51.962;8.560;2022-11-15T07:24:11;15.60;;;9.00;;
31095;SDS011;17749;51.962;8.560;2022-11-15T07:27:00;12.80;;;9.10;;
31095;SDS011;17749;51.962;8.560;2022-11-15T07:29:46;17.25;;;10.00;;
31095;SDS011;17749;51.962;8.560;2022-11-15T07:32:37;18.10;;;9.70;;
31095;SDS011;17749;51.962;8.560;2022-11-15T07:35:31;14.32;;;10.68;;
31095;SDS011;17749;51.962;8.560;2022-11-15T07:38:39;12.98;;;8.63;;
31095;SDS011;17749;51.962;8.560;2022-11-15T07:42:07;17.65;;;9.45;;
31095;SDS011;17749;51.962;8.560;2022-11-15T07:45:33;17.23;;;9.32;;
31095;SDS011;17749;51.962;8.560;2022-11-15T07:48:46;14.25;;;8.57;;
31095;SDS011;17749;51.962;8.560;2022-11-15T07:52:04;14.68;;;9.38;;
31095;SDS011;17749;51.962;8.560;2022-11-15T07:55:00;12.25;;;8.73;;
31095;SDS011;17749;51.962;8.560;2022-11-15T07:58:13;12.75;;;8.82;;
31095;SDS011;17749;51.962;8.560;2022-11-15T08:01:12;15.77;;;9.00;;
31095;SDS011;17749;51.962;8.560;2022-11-15T08:05:30;17.23;;;8.75;;
31095;SDS011;17749;51.962;8.560;2022-11-15T08:08:12;12.68;;;8.57;;
31095;SDS011;17749;51.962;8.560;2022-11-15T08:11:30;12.93;;;7.85;;
31095;SDS011;17749;51.962;8.560;2022-11-15T08:14:26;11.50;;;7.82;;
31095;SDS011;17749;51.962;8.560;2022-11-15T08:17:15;12.25;;;7.80;;
31095;SDS011;17749;51.962;8.560;2022-11-15T08:20:04;9.30;;;7.43;;
31095;SDS011;17749;51.962;8.560;2022-11-15T08:23:16;14.63;;;7.28;;
31095;SDS011;17749;51.962;8.560;2022-11-15T08:26:36;10.10;;;7.25;;
31095;SDS011;17749;51.962;8.560;2022-11-15T08:32:59;11.73;;;7.68;;
31095;SDS011;17749;51.962;8.560;2022-11-15T08:35:45;12.43;;;7.30;;
31095;SDS011;17749;51.962;8.560;2022-11-15T08:38:31;14.25;;;6.72;;
31095;SDS011;17749;51.962;8.560;2022-11-15T08:41:29;9.63;;;6.10;;
31095;SDS011;17749;51.962;8.560;2022-11-15T08:44:16;10.73;;;6.50;;
31095;SDS011;17749;51.962;8.560;2022-11-15T08:47:01;8.55;;;5.30;;
31095;SDS011;17749;51.962;8.560;2022-11-15T08:49:47;7.25;;;5.22;;
31095;SDS011;17749;51.962;8.560;2022-11-15T08:52:32;7.07;;;5.43;;
31095;SDS011;17749;51.962;8.560;2022-11-15T08:55:18;6.13;;;4.95;;
31095;SDS011;17749;51.962;8.560;2022-11-15T08:58:08;8.52;;;5.35;;
31095;SDS011;17749;51.962;8.560;2022-11-15T09:00:54;7.57;;;4.72;;
31095;SDS011;17749;51.962;8.560;2022-11-15T09:03:40;7.43;;;5.15;;
31095;SDS011;17749;51.962;8.560;2022-11-15T09:06:26;10.05;;;4.88;;
31095;SDS011;17749;51.962;8.560;2022-11-15T09:09:11;18.73;;;11.43;;
31095;SDS011;17749;51.962;8.560;2022-11-15T09:11:57;21.10;;;11.63;;
31095;SDS011;17749;51.962;8.560;2022-11-15T09:14:46;5.50;;;4.22;;
31095;SDS011;17749;51.962;8.560;2022-11-15T09:17:31;8.18;;;4.20;;
31095;SDS011;17749;51.962;8.560;2022-11-15T09:20:17;8.00;;;4.68;;
31095;SDS011;17749;51.962;8.560;2022-11-15T09:23:03;8.60;;;4.15;;
31095;SDS011;17749;51.962;8.560;2022-11-15T09:25:50;11.52;;;4.03;;
31095;SDS011;17749;51.962;8.560;2022-11-15T09:28:36;6.55;;;3.90;;
31095;SDS011;17749;51.962;8.560;2022-11-15T09:31:23;5.65;;;3.90;;
31095;SDS011;17749;51.962;8.560;2022-11-15T09:34:11;5.28;;;3.13;;
31095;SDS011;17749;51.962;8.560;2022-11-15T09:36:56;7.85;;;4.00;;
31095;SDS011;17749;51.962;8.560;2022-11-15T09:39:41;5.30;;;3.25;;
31095;SDS011;17749;51.962;8.560;2022-11-15T09:45:32;5.07;;;3.05;;
31095;SDS011;17749;51.962;8.560;2022-11-15T09:56:47;5.93;;;2.97;;
31095;SDS011;17749;51.962;8.560;2022-11-15T10:03:26;17.07;;;3.60;;
31095;SDS011;17749;51.962;8.560;2022-11-15T10:05:53;2.33;;;1.73;;
31095;SDS011;17749;51.962;8.560;2022-11-15T10:08:25;13.27;;;3.05;;
31095;SDS011;17749;51.962;8.560;2022-11-15T10:11:24;3.42;;;2.08;;
31095;SDS011;17749;51.962;8.560;2022-11-15T10:22:50;4.25;;;1.80;;
31095;SDS011;17749;51.962;8.560;2022-11-15T10:25:29;1.92;;;1.42;;
31095;SDS011;17749;51.962;8.560;2022-11-15T10:27:58;5.38;;;1.42;;
31095;SDS011;17749;51.962;8.560;2022-11-15T10:30:38;7.07;;;1.90;;
31095;SDS011;17749;51.962;8.560;2022-11-15T10:33:17;2.10;;;1.30;;
31095;SDS011;17749;51.962;8.560;2022-11-15T10:36:35;5.82;;;1.92;;
31095;SDS011;17749;51.962;8.560;2022-11-15T10:41:20;2.15;;;1.40;;
31095;SDS011;17749;51.962;8.560;2022-11-15T10:49:24;2.58;;;1.65;;
31095;SDS011;17749;51.962;8.560;2022-11-15T10:52:01;3.67;;;1.83;;
31095;SDS011;17749;51.962;8.560;2022-11-15T10:54:40;3.00;;;1.98;;
31095;SDS011;17749;51.962;8.560;2022-11-15T10:57:15;2.10;;;1.70;;
31095;SDS011;17749;51.962;8.560;2022-11-15T10:59:48;2.90;;;1.70;;
31095;SDS011;17749;51.962;8.560;2022-11-15T11:04:53;3.55;;;2.30;;
31095;SDS011;17749;51.962;8.560;2022-11-15T11:07:21;3.88;;;2.10;;
31095;SDS011;17749;51.962;8.560;2022-11-15T11:13:13;4.10;;;2.00;;
31095;SDS011;17749;51.962;8.560;2022-11-15T11:15:43;2.10;;;1.80;;
31095;SDS011;17749;51.962;8.560;2022-11-15T11:18:16;3.95;;;2.00;;
31095;SDS011;17749;51.962;8.560;2022-11-15T11:20:53;4.38;;;2.25;;
31095;SDS011;17749;51.962;8.560;2022-11-15T11:34:24;4.10;;;2.00;;
31095;SDS011;17749;51.962;8.560;2022-11-15T11:37:04;4.15;;;2.53;;
31095;SDS011;17749;51.962;8.560;2022-11-15T11:42:32;5.22;;;2.90;;
31095;SDS011;17749;51.962;8.560;2022-11-15T11:50:33;4.25;;;2.40;;
31095;SDS011;17749;51.962;8.560;2022-11-15T11:58:43;3.25;;;2.08;;
31095;SDS011;17749;51.962;8.560;2022-11-15T12:01:25;3.30;;;2.15;;
31095;SDS011;17749;51.962;8.560;2022-11-15T12:03:58;2.72;;;2.35;;
31095;SDS011;17749;51.962;8.560;2022-11-15T12:17:12;4.93;;;3.05;;
31095;SDS011;17749;51.962;8.560;2022-11-15T12:19:40;28.58;;;15.77;;
31095;SDS011;17749;51.962;8.560;2022-11-15T12:22:23;10.48;;;5.95;;
31095;SDS011;17749;51.962;8.560;2022-11-15T12:24:57;3.90;;;2.30;;
31095;SDS011;17749;51.962;8.560;2022-11-15T12:27:45;5.10;;;2.05;;
31095;SDS011;17749;51.962;8.560;2022-11-15T12:33:34;3.05;;;2.28;;
31095;SDS011;17749;51.962;8.560;2022-11-15T12:36:50;8.88;;;2.30;;
31095;SDS011;17749;51.962;8.560;2022-11-15T12:38:59;5.40;;;1.77;;
31095;SDS011;17749;51.962;8.560;2022-11-15T12:41:33;4.70;;;1.88;;
31095;SDS011;17749;51.962;8.560;2022-11-15T12:44:11;2.53;;;1.85;;
31095;SDS011;17749;51.962;8.560;2022-11-15T13:02:26;3.40;;;1.65;;
31095;SDS011;17749;51.962;8.560;2022-11-15T13:27:59;3.00;;;1.80;;
31095;SDS011;17749;51.962;8.560;2022-11-15T13:30:33;2.35;;;1.60;;
31095;SDS011;17749;51.962;8.560;2022-11-15T13:33:05;4.75;;;1.90;;
31095;SDS011;17749;51.962;8.560;2022-11-15T13:35:38;3.92;;;1.75;;
31095;SDS011;17749;51.962;8.560;2022-11-15T13:38:11;2.45;;;1.73;;
31095;SDS011;17749;51.962;8.560;2022-11-15T13:40:46;3.08;;;1.95;;
31095;SDS011;17749;51.962;8.560;2022-11-15T13:43:34;6.18;;;1.95;;
31095;SDS011;17749;51.962;8.560;2022-11-15T13:46:07;6.82;;;2.15;;
31095;SDS011;17749;51.962;8.560;2022-11-15T13:48:41;4.97;;;2.60;;
31095;SDS011;17749;51.962;8.560;2022-11-15T13:53:45;3.70;;;2.60;;
31095;SDS011;17749;51.962;8.560;2022-11-15T13:56:16;3.92;;;2.42;;
31095;SDS011;17749;51.962;8.560;2022-11-15T13:58:45;4.22;;;2.30;;
31095;SDS011;17749;51.962;8.560;2022-11-15T14:01:14;3.50;;;2.50;;
31095;SDS011;17749;51.962;8.560;2022-11-15T14:03:50;3.15;;;2.42;;
31095;SDS011;17749;51.962;8.560;2022-11-15T14:06:21;4.25;;;2.78;;
31095;SDS011;17749;51.962;8.560;2022-11-15T14:08:58;4.75;;;2.70;;
31095;SDS011;17749;51.962;8.560;2022-11-15T14:11:28;4.18;;;2.50;;
31095;SDS011;17749;51.962;8.560;2022-11-15T14:19:04;5.65;;;2.65;;
31095;SDS011;17749;51.962;8.560;2022-11-15T14:21:32;6.13;;;2.80;;
31095;SDS011;17749;51.962;8.560;2022-11-15T14:24:18;9.15;;;2.90;;
31095;SDS011;17749;51.962;8.560;2022-11-15T14:26:47;6.35;;;2.80;;
31095;SDS011;17749;51.962;8.560;2022-11-15T14:29:27;3.50;;;2.38;;
31095;SDS011;17749;51.962;8.560;2022-11-15T14:32:11;5.72;;;3.08;;
31095;SDS011;17749;51.962;8.560;2022-11-15T14:34:41;6.18;;;2.55;;
31095;SDS011;17749;51.962;8.560;2022-11-15T14:37:12;3.30;;;2.35;;
31095;SDS011;17749;51.962;8.560;2022-11-15T14:39:45;5.25;;;2.80;;
31095;SDS011;17749;51.962;8.560;2022-11-15T14:42:12;5.68;;;2.97;;
31095;SDS011;17749;51.962;8.560;2022-11-15T14:44:39;4.65;;;2.95;;
31095;SDS011;17749;51.962;8.560;2022-11-15T14:47:11;3.75;;;2.15;;
31095;SDS011;17749;51.962;8.560;2022-11-15T14:49:38;6.00;;;3.53;;
31095;SDS011;17749;51.962;8.560;2022-11-15T14:52:21;4.80;;;2.65;;
31095;SDS011;17749;51.962;8.560;2022-11-15T14:54:58;7.68;;;3.75;;
31095;SDS011;17749;51.962;8.560;2022-11-15T14:57:25;6.70;;;4.28;;
31095;SDS011;17749;51.962;8.560;2022-11-15T14:59:52;6.35;;;3.65;;
31095;SDS011;17749;51.962;8.560;2022-11-15T15:02:21;9.18;;;3.45;;
31095;SDS011;17749;51.962;8.560;2022-11-15T15:07:16;4.25;;;2.60;;
31095;SDS011;17749;51.962;8.560;2022-11-15T15:09:44;4.30;;;2.47;;
31095;SDS011;17749;51.962;8.560;2022-11-15T15:12:15;6.90;;;2.60;;
31095;SDS011;17749;51.962;8.560;2022-11-15T15:14:50;4.75;;;2.50;;
31095;SDS011;17749;51.962;8.560;2022-11-15T15:17:17;6.43;;;3.13;;
31095;SDS011;17749;51.962;8.560;2022-11-15T15:19:44;4.95;;;2.22;;
31095;SDS011;17749;51.962;8.560;2022-11-15T15:22:13;4.32;;;2.25;;
31095;SDS011;17749;51.962;8.560;2022-11-15T15:24:42;3.28;;;2.05;;
31095;SDS011;17749;51.962;8.560;2022-11-15T15:27:10;3.08;;;1.95;;
31095;SDS011;17749;51.962;8.560;2022-11-15T15:32:32;3.03;;;2.13;;
31095;SDS011;17749;51.962;8.560;2022-11-15T15:34:59;5.57;;;2.53;;
31095;SDS011;17749;51.962;8.560;2022-11-15T15:37:26;3.53;;;2.20;;
31095;SDS011;17749;51.962;8.560;2022-11-15T15:39:53;5.70;;;2.78;;
31095;SDS011;17749;51.962;8.560;2022-11-15T15:42:22;6.00;;;2.97;;
31095;SDS011;17749;51.962;8.560;2022-11-15T15:44:49;3.50;;;2.35;;
31095;SDS011;17749;51.962;8.560;2022-11-15T15:47:20;3.95;;;2.38;;
31095;SDS011;17749;51.962;8.560;2022-11-15T15:49:49;3.88;;;2.38;;
31095;SDS011;17749;51.962;8.560;2022-11-15T15:52:17;8.32;;;2.85;;
31095;SDS011;17749;51.962;8.560;2022-11-15T15:54:44;4.85;;;2.33;;
31095;SDS011;17749;51.962;8.560;2022-11-15T15:57:12;4.35;;;2.65;;
31095;SDS011;17749;51.962;8.560;2022-11-15T15:59:40;3.90;;;2.30;;
31095;SDS011;17749;51.962;8.560;2022-11-15T16:02:13;5.57;;;2.20;;
31095;SDS011;17749;51.962;8.560;2022-11-15T16:04:40;5.72;;;2.47;;
31095;SDS011;17749;51.962;8.560;2022-11-15T16:07:12;7.25;;;3.20;;
31095;SDS011;17749;51.962;8.560;2022-11-15T16:09:44;38.60;;;4.25;;
31095;SDS011;17749;51.962;8.560;2022-11-15T16:12:29;9.65;;;7.63;;
31095;SDS011;17749;51.962;8.560;2022-11-15T16:15:00;6.60;;;4.38;;
31095;SDS011;17749;51.962;8.560;2022-11-15T16:17:30;8.68;;;4.20;;
31095;SDS011;17749;51.962;8.560;2022-11-15T16:20:00;6.82;;;4.47;;
31095;SDS011;17749;51.962;8.560;2022-11-15T16:22:27;7.03;;;4.47;;
31095;SDS011;17749;51.962;8.560;2022-11-15T16:24:55;7.53;;;3.80;;
31095;SDS011;17749;51.962;8.560;2022-11-15T16:27:23;10.98;;;3.50;;
31095;SDS011;17749;51.962;8.560;2022-11-15T16:29:50;7.32;;;3.58;;
31095;SDS011;17749;51.962;8.560;2022-11-15T16:32:17;8.40;;;2.78;;
31095;SDS011;17749;51.962;8.560;2022-11-15T16:34:44;6.50;;;2.40;;
31095;SDS011;17749;51.962;8.560;2022-11-15T16:37:23;3.70;;;2.58;;
31095;SDS011;17749;51.962;8.560;2022-11-15T16:39:51;7.80;;;3.22;;
31095;SDS011;17749;51.962;8.560;2022-11-15T16:42:23;13.02;;;9.50;;
31095;SDS011;17749;51.962;8.560;2022-11-15T16:44:50;9.48;;;5.78;;
31095;SDS011;17749;51.962;8.560;2022-11-15T16:47:26;16.08;;;9.07;;
31095;SDS011;17749;51.962;8.560;2022-11-15T16:49:53;6.00;;;3.92;;
31095;SDS011;17749;51.962;8.560;2022-11-15T16:52:19;4.72;;;2.58;;
31095;SDS011;17749;51.962;8.560;2022-11-15T16:54:47;6.00;;;2.35;;
31095;SDS011;17749;51.962;8.560;2022-11-15T16:57:14;5.30;;;2.40;;
31095;SDS011;17749;51.962;8.560;2022-11-15T16:59:41;4.50;;;2.95;;
31095;SDS011;17749;51.962;8.560;2022-11-15T17:02:12;4.25;;;2.67;;
31095;SDS011;17749;51.962;8.560;2022-11-15T17:04:39;6.03;;;3.05;;
31095;SDS011;17749;51.962;8.560;2022-11-15T17:07:07;6.00;;;3.75;;
31095;SDS011;17749;51.962;8.560;2022-11-15T17:09:34;5.75;;;3.17;;
31095;SDS011;17749;51.962;8.560;2022-11-15T17:12:00;3.80;;;2.50;;
31095;SDS011;17749;51.962;8.560;2022-11-15T17:14:27;4.20;;;2.63;;
31095;SDS011;17749;51.962;8.560;2022-11-15T17:16:54;6.47;;;2.78;;
31095;SDS011;17749;51.962;8.560;2022-11-15T17:19:21;4.85;;;3.70;;
31095;SDS011;17749;51.962;8.560;2022-11-15T17:21:48;3.67;;;2.25;;
31095;SDS011;17749;51.962;8.560;2022-11-15T17:24:15;4.97;;;2.40;;
31095;SDS011;17749;51.962;8.560;2022-11-15T17:26:42;4.82;;;2.47;;
31095;SDS011;17749;51.962;8.560;2022-11-15T17:29:09;5.85;;;2.42;;
31095;SDS011;17749;51.962;8.560;2022-11-15T17:31:37;5.13;;;2.30;;
31095;SDS011;17749;51.962;8.560;2022-11-15T17:34:04;6.68;;;2.28;;
31095;SDS011;17749;51.962;8.560;2022-11-15T17:36:32;6.10;;;2.28;;
31095;SDS011;17749;51.962;8.560;2022-11-15T17:38:59;4.28;;;2.20;;
31095;SDS011;17749;51.962;8.560;2022-11-15T17:41:26;4.55;;;2.22;;
31095;SDS011;17749;51.962;8.560;2022-11-15T17:43:55;4.45;;;3.05;;
31095;SDS011;17749;51.962;8.560;2022-11-15T17:46:25;4.97;;;2.60;;
31095;SDS011;17749;51.962;8.560;2022-11-15T17:48:54;4.60;;;2.70;;
31095;SDS011;17749;51.962;8.560;2022-11-15T17:51:22;3.20;;;2.60;;
31095;SDS011;17749;51.962;8.560;2022-11-15T17:53:49;5.40;;;2.70;;
31095;SDS011;17749;51.962;8.560;2022-11-15T17:56:21;6.10;;;3.58;;
31095;SDS011;17749;51.962;8.560;2022-11-15T17:58:50;11.48;;;6.70;;
31095;SDS011;17749;51.962;8.560;2022-11-15T18:01:20;10.23;;;5.97;;
31095;SDS011;17749;51.962;8.560;2022-11-15T18:03:58;6.97;;;3.88;;
31095;SDS011;17749;51.962;8.560;2022-11-15T18:06:28;7.10;;;3.58;;
31095;SDS011;17749;51.962;8.560;2022-11-15T18:08:56;5.30;;;2.97;;
31095;SDS011;17749;51.962;8.560;2022-11-15T18:11:28;3.95;;;2.60;;
31095;SDS011;17749;51.962;8.560;2022-11-15T18:14:01;3.80;;;2.85;;
31095;SDS011;17749;51.962;8.560;2022-11-15T18:18:57;4.13;;;2.80;;
31095;SDS011;17749;51.962;8.560;2022-11-15T18:21:26;7.03;;;3.20;;
31095;SDS011;17749;51.962;8.560;2022-11-15T18:26:58;5.88;;;2.85;;
31095;SDS011;17749;51.962;8.560;2022-11-15T18:29:25;4.78;;;2.78;;
31095;SDS011;17749;51.962;8.560;2022-11-15T18:31:53;5.38;;;2.75;;
31095;SDS011;17749;51.962;8.560;2022-11-15T18:34:25;5.15;;;2.80;;
31095;SDS011;17749;51.962;8.560;2022-11-15T18:36:58;3.97;;;2.78;;
31095;SDS011;17749;51.962;8.560;2022-11-15T18:39:25;4.97;;;2.78;;
31095;SDS011;17749;51.962;8.560;2022-11-15T18:41:52;5.47;;;2.90;;
31095;SDS011;17749;51.962;8.560;2022-11-15T18:44:19;3.72;;;2.83;;
31095;SDS011;17749;51.962;8.560;2022-11-15T18:46:47;3.75;;;2.42;;
31095;SDS011;17749;51.962;8.560;2022-11-15T18:49:14;7.75;;;2.92;;
31095;SDS011;17749;51.962;8.560;2022-11-15T18:51:42;5.38;;;3.00;;
31095;SDS011;17749;51.962;8.560;2022-11-15T18:54:10;4.22;;;3.08;;
31095;SDS011;17749;51.962;8.560;2022-11-15T18:56:38;5.43;;;2.88;;
31095;SDS011;17749;51.962;8.560;2022-11-15T18:59:05;4.72;;;2.42;;
31095;SDS011;17749;51.962;8.560;2022-11-15T19:01:37;5.93;;;2.75;;
31095;SDS011;17749;51.962;8.560;2022-11-15T19:04:08;4.20;;;2.20;;
31095;SDS011;17749;51.962;8.560;2022-11-15T19:06:38;4.30;;;2.70;;
31095;SDS011;17749;51.962;8.560;2022-11-15T19:09:08;7.53;;;4.07;;
31095;SDS011;17749;51.962;8.560;2022-11-15T19:11:37;12.55;;;5.82;;
31095;SDS011;17749;51.962;8.560;2022-11-15T19:14:09;10.85;;;5.93;;
31095;SDS011;17749;51.962;8.560;2022-11-15T19:16:40;7.90;;;4.35;;
31095;SDS011;17749;51.962;8.560;2022-11-15T19:19:18;5.68;;;3.67;;
31095;SDS011;17749;51.962;8.560;2022-11-15T19:21:50;4.82;;;2.88;;
31095;SDS011;17749;51.962;8.560;2022-11-15T19:24:17;3.83;;;3.15;;
31095;SDS011;17749;51.962;8.560;2022-11-15T19:26:45;3.45;;;2.67;;
31095;SDS011;17749;51.962;8.560;2022-11-15T19:29:12;5.35;;;2.45;;
31095;SDS011;17749;51.962;8.560;2022-11-15T19:31:39;4.82;;;2.65;;
31095;SDS011;17749;51.962;8.560;2022-11-15T19:34:06;5.18;;;2.67;;
31095;SDS011;17749;51.962;8.560;2022-11-15T19:36:36;4.25;;;2.30;;
31095;SDS011;17749;51.962;8.560;2022-11-15T19:39:05;4.28;;;2.50;;
31095;SDS011;17749;51.962;8.560;2022-11-15T19:41:36;3.80;;;2.40;;
31095;SDS011;17749;51.962;8.560;2022-11-15T19:44:04;3.78;;;2.72;;
31095;SDS011;17749;51.962;8.560;2022-11-15T19:46:32;4.45;;;2.55;;
31095;SDS011;17749;51.962;8.560;2022-11-15T19:48:59;5.18;;;2.63;;
31095;SDS011;17749;51.962;8.560;2022-11-15T19:51:26;6.65;;;2.40;;
31095;SDS011;17749;51.962;8.560;2022-11-15T19:53:58;3.72;;;2.30;;
31095;SDS011;17749;51.962;8.560;2022-11-15T19:56:29;3.75;;;2.22;;
31095;SDS011;17749;51.962;8.560;2022-11-15T19:58:56;4.03;;;2.05;;
31095;SDS011;17749;51.962;8.560;2022-11-15T20:01:24;5.85;;;2.72;;
31095;SDS011;17749;51.962;8.560;2022-11-15T20:03:56;3.75;;;2.40;;
31095;SDS011;17749;51.962;8.560;2022-11-15T20:06:31;4.60;;;2.65;;
31095;SDS011;17749;51.962;8.560;2022-11-15T20:09:00;2.95;;;2.20;;
31095;SDS011;17749;51.962;8.560;2022-11-15T20:11:27;4.00;;;2.80;;
31095;SDS011;17749;51.962;8.560;2022-11-15T20:13:55;3.92;;;2.20;;
31095;SDS011;17749;51.962;8.560;2022-11-15T20:16:27;3.95;;;2.40;;
31095;SDS011;17749;51.962;8.560;2022-11-15T20:18:55;6.47;;;2.72;;
31095;SDS011;17749;51.962;8.560;2022-11-15T20:21:22;4.40;;;2.63;;
31095;SDS011;17749;51.962;8.560;2022-11-15T20:23:50;3.88;;;2.47;;
31095;SDS011;17749;51.962;8.560;2022-11-15T20:26:17;6.63;;;2.83;;
31095;SDS011;17749;51.962;8.560;2022-11-15T20:28:45;8.23;;;3.03;;
31095;SDS011;17749;51.962;8.560;2022-11-15T20:31:14;6.95;;;4.47;;
31095;SDS011;17749;51.962;8.560;2022-11-15T20:33:42;12.45;;;5.18;;
31095;SDS011;17749;51.962;8.560;2022-11-15T20:36:10;7.30;;;3.70;;
31095;SDS011;17749;51.962;8.560;2022-11-15T20:38:38;3.85;;;2.90;;
31095;SDS011;17749;51.962;8.560;2022-11-15T20:41:05;4.75;;;3.13;;
31095;SDS011;17749;51.962;8.560;2022-11-15T20:43:32;6.03;;;3.30;;
31095;SDS011;17749;51.962;8.560;2022-11-15T20:45:58;3.75;;;2.63;;
31095;SDS011;17749;51.962;8.560;2022-11-15T20:48:25;4.43;;;2.70;;
31095;SDS011;17749;51.962;8.560;2022-11-15T20:50:58;6.00;;;3.40;;
31095;SDS011;17749;51.962;8.560;2022-11-15T20:53:33;4.60;;;2.90;;
31095;SDS011;17749;51.962;8.560;2022-11-15T20:56:03;4.20;;;2.83;;
31095;SDS011;17749;51.962;8.560;2022-11-15T20:58:34;4.68;;;2.90;;
31095;SDS011;17749;51.962;8.560;2022-11-15T21:01:02;6.57;;;2.78;;
31095;SDS011;17749;51.962;8.560;2022-11-15T21:03:33;4.53;;;2.60;;
31095;SDS011;17749;51.962;8.560;2022-11-15T21:06:01;4.90;;;2.90;;
31095;SDS011;17749;51.962;8.560;2022-11-15T21:08:28;6.57;;;3.08;;
31095;SDS011;17749;51.962;8.560;2022-11-15T21:11:18;4.50;;;2.80;;
31095;SDS011;17749;51.962;8.560;2022-11-15T21:14:05;4.03;;;2.60;;
31095;SDS011;17749;51.962;8.560;2022-11-15T21:16:35;6.55;;;2.70;;
31095;SDS011;17749;51.962;8.560;2022-11-15T21:19:03;4.97;;;2.60;;
31095;SDS011;17749;51.962;8.560;2022-11-15T21:21:32;11.80;;;6.18;;
31095;SDS011;17749;51.962;8.560;2022-11-15T21:24:01;4.93;;;3.20;;
31095;SDS011;17749;51.962;8.560;2022-11-15T21:28:56;5.72;;;3.22;;
